createdAt,value
2023-03-04T00:02:18.133Z,100189.72
2023-03-04T00:04:44.858Z,100190.63
2023-03-04T00:07:11.664Z,100190.63
2023-03-04T00:09:38.285Z,100190.59
2023-03-04T00:12:05.129Z,100188.13
2023-03-04T00:14:31.795Z,100182.78
2023-03-04T00:16:58.474Z,100186.16
2023-03-04T00:19:27.449Z,100189.66
2023-03-04T00:21:54.044Z,100184.28
2023-03-04T00:24:22.572Z,100179.97
2023-03-04T00:26:49.257Z,100181.50
2023-03-04T00:29:15.933Z,100187.75
2023-03-04T00:31:42.956Z,100192.91
2023-03-04T00:34:09.703Z,100192.91
2023-03-04T00:36:36.344Z,100184.94
2023-03-04T00:39:02.989Z,100185.66
2023-03-04T00:41:29.647Z,100184.06
2023-03-04T00:43:56.389Z,100178.94
2023-03-04T00:46:23.096Z,100183.25
2023-03-04T00:48:49.768Z,100185.69
2023-03-04T00:51:16.400Z,100173.78
2023-03-04T00:53:43.053Z,100171.94
2023-03-04T00:56:09.834Z,100172.75
2023-03-04T00:58:36.713Z,100168.44
2023-03-04T01:01:03.438Z,100156.28
2023-03-04T01:03:30.059Z,100158.84
2023-03-04T01:05:56.900Z,100156.28
2023-03-04T01:08:23.585Z,100161.41
2023-03-04T01:10:51.652Z,100162.19
2023-03-04T01:13:18.979Z,100161.16
2023-03-04T01:15:45.737Z,100160.13
2023-03-04T01:18:12.608Z,100152.50
2023-03-04T01:20:39.328Z,100160.19
2023-03-04T01:23:06.119Z,100156.88
2023-03-04T01:25:32.837Z,100152.56
2023-03-04T01:27:59.449Z,100148.72
2023-03-04T01:30:26.088Z,100140.00
2023-03-04T01:32:52.781Z,100146.44
2023-03-04T01:35:19.675Z,100139.22
2023-03-04T01:37:46.358Z,100130.75
2023-03-04T01:40:14.224Z,100133.63
2023-03-04T01:42:41.100Z,100133.84
2023-03-04T01:45:12.531Z,100130.22
2023-03-04T01:47:39.448Z,100129.16
2023-03-04T01:50:17.929Z,100131.53
2023-03-04T01:52:44.616Z,100126.34
2023-03-04T01:55:16.805Z,100125.88
2023-03-04T01:57:44.254Z,100128.09
2023-03-04T02:00:20.346Z,100128.97
2023-03-04T02:02:50.297Z,100127.84
2023-03-04T02:05:17.330Z,100123.84
2023-03-04T02:07:43.922Z,100118.41
2023-03-04T02:10:12.101Z,100115.44
2023-03-04T02:12:39.650Z,100113.44
2023-03-04T02:15:07.160Z,100113.50
2023-03-04T02:17:33.812Z,100107.69
2023-03-04T02:20:09.425Z,100102.56
2023-03-04T02:22:42.472Z,100100.03
2023-03-04T02:25:22.384Z,100091.44
2023-03-04T02:27:49.023Z,100089.63
2023-03-04T02:30:21.480Z,100091.25
2023-03-04T02:32:48.154Z,100093.03
2023-03-04T02:35:18.077Z,100086.88
2023-03-04T02:37:45.241Z,100086.69
2023-03-04T02:40:31.285Z,100086.28
2023-03-04T02:43:01.249Z,100081.28
2023-03-04T02:45:51.199Z,100080.53
2023-03-04T02:48:20.756Z,100074.22
2023-03-04T02:50:52.793Z,100074.00
2023-03-04T02:53:20.713Z,100075.16
2023-03-04T02:55:48.297Z,100065.53
2023-03-04T02:58:15.245Z,100066.66
2023-03-04T03:00:42.180Z,100067.69
2023-03-04T03:03:09.239Z,100074.25
2023-03-04T03:05:38.212Z,100063.16
2023-03-04T03:08:05.446Z,100066.84
2023-03-04T03:10:32.229Z,100080.78
2023-03-04T03:12:58.887Z,100068.34
2023-03-04T03:15:25.674Z,100064.28
2023-03-04T03:17:52.315Z,100067.00
2023-03-04T03:20:19.647Z,100066.38
2023-03-04T03:22:47.347Z,100063.69
2023-03-04T03:25:16.558Z,100053.25
2023-03-04T03:27:43.385Z,100052.88
2023-03-04T03:30:12.493Z,100052.09
2023-03-04T03:32:39.221Z,100053.03
2023-03-04T03:35:06.241Z,100049.75
2023-03-04T03:37:33.217Z,100035.09
2023-03-04T03:39:59.849Z,100042.84
2023-03-04T03:42:26.533Z,100033.25
2023-03-04T03:44:53.235Z,100034.81
2023-03-04T03:47:21.691Z,100033.09
2023-03-04T03:49:48.851Z,100026.25
2023-03-04T03:52:15.588Z,100027.09
2023-03-04T03:54:42.277Z,100035.53
2023-03-04T03:57:08.997Z,100041.63
2023-03-04T03:59:35.692Z,100036.16
2023-03-04T04:02:02.527Z,100042.41
2023-03-04T04:04:29.436Z,100055.19
2023-03-04T04:06:56.157Z,100044.47
2023-03-04T04:09:22.893Z,100043.22
2023-03-04T04:11:52.294Z,100050.28
2023-03-04T04:14:18.989Z,100045.97
2023-03-04T04:16:45.656Z,100040.38
2023-03-04T04:19:20.016Z,100037.38
2023-03-04T04:21:47.113Z,100034.34
2023-03-04T04:24:14.253Z,100036.44
2023-03-04T04:26:41.269Z,100032.66
2023-03-04T04:29:09.304Z,100036.16
2023-03-04T04:31:36.019Z,100041.22
2023-03-04T04:34:02.636Z,100032.19
2023-03-04T04:36:29.323Z,100032.84
2023-03-04T04:38:56.054Z,100038.31
2023-03-04T04:41:26.353Z,100034.09
2023-03-04T04:43:53.397Z,100047.50
2023-03-04T04:46:20.587Z,100038.28
2023-03-04T04:48:47.559Z,100032.31
2023-03-04T04:51:14.658Z,100035.56
2023-03-04T04:53:41.308Z,100033.81
2023-03-04T04:56:15.377Z,100034.53
2023-03-04T04:58:43.084Z,100026.09
2023-03-04T05:01:10.391Z,100033.81
2023-03-04T05:03:38.336Z,100026.19
2023-03-04T05:06:07.026Z,100044.22
2023-03-04T05:08:34.505Z,100036.28
2023-03-04T05:11:02.174Z,100040.59
2023-03-04T05:13:28.828Z,100034.88
2023-03-04T05:15:56.884Z,100037.69
2023-03-04T05:18:25.994Z,100040.88
2023-03-04T05:20:56.553Z,100039.97
2023-03-04T05:23:24.062Z,100040.81
2023-03-04T05:25:51.425Z,100045.91
2023-03-04T05:28:18.310Z,100047.31
2023-03-04T05:30:46.303Z,100052.50
2023-03-04T05:33:14.836Z,100061.50
2023-03-04T05:35:42.518Z,100047.63
2023-03-04T05:38:11.318Z,100052.06
2023-03-04T05:40:38.908Z,100047.31
2023-03-04T05:43:05.601Z,100058.28
2023-03-04T05:45:32.389Z,100056.63
2023-03-04T05:47:59.375Z,100059.69
2023-03-04T05:50:26.898Z,100060.22
2023-03-04T05:52:53.572Z,100064.50
2023-03-04T05:55:20.482Z,100063.72
2023-03-04T05:57:47.420Z,100060.44
2023-03-04T06:00:15.548Z,100056.78
2023-03-04T06:02:43.411Z,100073.13
2023-03-04T06:05:12.872Z,100071.84
2023-03-04T06:07:39.619Z,100075.25
2023-03-04T06:10:07.098Z,100075.59
2023-03-04T06:12:37.445Z,100078.16
2023-03-04T06:15:04.586Z,100079.06
2023-03-04T06:17:31.247Z,100073.53
2023-03-04T06:19:58.057Z,100083.47
2023-03-04T06:22:24.724Z,100087.16
2023-03-04T06:24:51.379Z,100082.06
2023-03-04T06:27:18.007Z,100073.53
2023-03-04T06:29:44.785Z,100085.22
2023-03-04T06:32:11.468Z,100085.25
2023-03-04T06:34:38.374Z,100087.16
2023-03-04T06:37:05.040Z,100084.50
2023-03-04T06:39:31.840Z,100088.88
2023-03-04T06:41:58.796Z,100082.34
2023-03-04T06:44:25.433Z,100088.03
2023-03-04T06:46:52.220Z,100086.53
2023-03-04T06:49:19.141Z,100085.09
2023-03-04T06:51:45.919Z,100081.53
2023-03-04T06:54:12.539Z,100092.81
2023-03-04T06:56:39.254Z,100088.28
2023-03-04T06:59:06.007Z,100090.38
2023-03-04T07:01:32.977Z,100098.19
2023-03-04T07:03:59.958Z,100085.78
2023-03-04T07:06:28.191Z,100088.63
2023-03-04T07:08:55.665Z,100089.66
2023-03-04T07:11:23.476Z,100086.44
2023-03-04T07:13:51.201Z,100089.09
2023-03-04T07:16:20.787Z,100084.75
2023-03-04T07:18:47.595Z,100087.66
2023-03-04T07:21:15.244Z,100086.84
2023-03-04T07:23:44.729Z,100085.47
2023-03-04T07:26:11.939Z,100083.63
2023-03-04T07:28:38.953Z,100082.63
2023-03-04T07:31:23.524Z,100086.16
2023-03-04T07:33:51.569Z,100085.41
2023-03-04T07:36:18.248Z,100084.16
2023-03-04T07:38:49.186Z,100078.97
2023-03-04T07:41:16.717Z,100079.66
2023-03-04T07:43:43.603Z,100084.81
2023-03-04T07:46:10.664Z,100075.31
2023-03-04T07:48:37.604Z,100073.84
2023-03-04T07:51:07.833Z,100078.72
2023-03-04T07:53:36.025Z,100073.53
2023-03-04T07:56:03.867Z,100074.66
2023-03-04T07:58:30.622Z,100073.66
2023-03-04T08:00:57.656Z,100072.78
2023-03-04T08:03:24.601Z,100073.84
2023-03-04T08:05:51.772Z,100075.69
2023-03-04T08:08:18.434Z,100074.94
2023-03-04T08:10:45.673Z,100069.78
2023-03-04T08:13:12.340Z,100070.63
2023-03-04T08:15:45.428Z,100071.50
2023-03-04T08:18:12.183Z,100063.66
2023-03-04T08:20:42.770Z,100075.78
2023-03-04T08:23:10.843Z,100066.13
2023-03-04T08:25:42.556Z,100066.22
2023-03-04T08:28:10.604Z,100064.53
2023-03-04T08:30:39.305Z,100067.94
2023-03-04T08:33:06.398Z,100071.34
2023-03-04T08:35:36.159Z,100061.66
2023-03-04T08:38:02.887Z,100070.38
2023-03-04T08:40:29.634Z,100060.69
2023-03-04T08:42:56.318Z,100060.69
2023-03-04T08:45:23.181Z,100051.13
2023-03-04T08:47:51.730Z,100048.41
2023-03-04T08:50:20.171Z,100054.50
2023-03-04T08:52:48.184Z,100050.13
2023-03-04T08:55:15.018Z,100055.13
2023-03-04T08:57:41.613Z,100049.81
2023-03-04T09:00:09.024Z,100045.50
2023-03-04T09:02:35.947Z,100049.91
2023-03-04T09:05:02.655Z,100043.03
2023-03-04T09:07:29.297Z,100036.94
2023-03-04T09:09:55.926Z,100040.28
2023-03-04T09:12:22.690Z,100040.78
2023-03-04T09:15:01.152Z,100044.03
2023-03-04T09:17:35.299Z,100035.47
2023-03-04T09:20:04.448Z,100040.41
2023-03-04T09:22:31.780Z,100039.44
2023-03-04T09:24:58.418Z,100035.72
2023-03-04T09:27:25.551Z,100034.09
2023-03-04T09:29:52.199Z,100036.50
2023-03-04T09:32:19.001Z,100030.19
2023-03-04T09:34:45.696Z,100026.66
2023-03-04T09:37:12.349Z,100029.34
2023-03-04T09:39:39.091Z,100024.13
2023-03-04T09:42:08.191Z,100014.22
2023-03-04T09:44:40.054Z,100016.75
2023-03-04T09:47:13.850Z,100010.44
2023-03-04T09:49:44.966Z,100009.41
2023-03-04T09:52:52.607Z,100010.78
2023-03-04T09:55:35.997Z,100011.63
2023-03-04T09:58:30.275Z,99999.50
2023-03-04T10:01:09.709Z,99996.34
2023-03-04T10:03:45.470Z,99993.63
2023-03-04T10:06:18.302Z,100004.84
2023-03-04T10:09:26.791Z,100004.19
2023-03-04T10:12:01.054Z,99995.78
2023-03-04T10:14:35.691Z,100000.28
2023-03-04T10:17:19.051Z,99993.44
2023-03-04T10:19:58.492Z,99984.13
2023-03-04T10:22:28.163Z,99996.78
2023-03-04T10:24:59.585Z,99991.78
2023-03-04T10:27:26.486Z,99992.63
2023-03-04T10:29:53.217Z,99979.53
2023-03-04T10:32:20.991Z,99980.81
2023-03-04T10:34:47.822Z,99978.34
2023-03-04T10:37:17.090Z,99960.66
2023-03-04T10:39:46.546Z,99962.28
2023-03-04T10:42:16.107Z,99963.84
2023-03-04T10:44:51.477Z,99962.06
2023-03-04T10:47:18.123Z,99965.53
2023-03-04T10:50:16.941Z,99950.94
2023-03-04T10:52:49.712Z,99943.75
2023-03-04T10:55:24.908Z,99945.09
2023-03-04T10:57:57.900Z,99941.47
2023-03-04T11:00:31.308Z,99930.09
2023-03-04T11:03:22.536Z,99931.53
2023-03-04T11:05:49.946Z,99925.25
2023-03-04T11:08:19.819Z,99925.22
2023-03-04T11:10:46.930Z,99921.69
2023-03-04T11:13:19.517Z,99924.22
2023-03-04T11:16:06.052Z,99920.97
2023-03-04T11:18:46.989Z,99915.72
2023-03-04T11:21:20.580Z,99922.34
2023-03-04T11:23:58.605Z,99917.69
2023-03-04T11:26:48.862Z,99910.19
2023-03-04T11:29:23.162Z,99909.31
2023-03-04T11:32:00.860Z,99904.63
2023-03-04T11:34:27.527Z,99909.47
2023-03-04T11:37:08.514Z,99905.31
2023-03-04T11:39:50.698Z,99901.19
2023-03-04T11:42:37.500Z,99900.13
2023-03-04T11:45:28.453Z,99890.56
2023-03-04T11:48:23.944Z,99882.25
2023-03-04T11:50:54.682Z,99886.59
2023-03-04T11:53:39.936Z,99880.03
2023-03-04T11:56:27.560Z,99878.28
2023-03-04T11:59:09.289Z,99864.13
2023-03-04T12:01:54.515Z,99869.75
2023-03-04T12:04:58.502Z,99861.91
2023-03-04T12:07:45.208Z,99861.56
2023-03-04T12:10:30.325Z,99854.63
2023-03-04T12:13:35.739Z,99847.06
2023-03-04T12:16:33.120Z,99847.13
2023-03-04T12:19:29.916Z,99847.59
2023-03-04T12:22:11.954Z,99837.31
2023-03-04T12:24:42.592Z,99839.66
2023-03-04T12:27:38.866Z,99842.09
2023-03-04T12:30:24.373Z,99832.78
2023-03-04T12:33:00.568Z,99847.69
2023-03-04T12:35:48.305Z,99842.06
2023-03-04T12:38:20.828Z,99841.06
2023-03-04T12:41:25.652Z,99826.97
2023-03-04T12:44:00.924Z,99837.09
2023-03-04T12:46:49.294Z,99826.47
2023-03-04T12:49:52.584Z,99823.28
2023-03-04T12:52:47.705Z,99822.75
2023-03-04T12:55:18.971Z,99820.13
2023-03-04T12:57:46.453Z,99804.66
2023-03-04T13:00:13.065Z,99802.63
2023-03-04T13:02:45.507Z,99795.47
2023-03-04T13:05:40.361Z,99797.22
2023-03-04T13:08:15.461Z,99796.16
2023-03-04T13:10:42.071Z,99789.91
2023-03-04T13:13:42.088Z,99786.56
2023-03-04T13:16:11.904Z,99788.81
2023-03-04T13:18:41.376Z,99785.06
2023-03-04T13:21:30.880Z,99782.34
2023-03-04T13:24:01.923Z,99767.13
2023-03-04T13:26:29.868Z,99775.09
2023-03-04T13:29:25.639Z,99758.09
2023-03-04T13:32:20.431Z,99765.00
2023-03-04T13:34:51.780Z,99753.97
2023-03-04T13:37:28.880Z,99755.06
2023-03-04T13:40:20.594Z,99756.66
2023-03-04T13:42:47.372Z,99742.53
2023-03-04T13:45:29.494Z,99751.69
2023-03-04T13:47:56.227Z,99737.38
2023-03-04T13:50:35.336Z,99735.00
2023-03-04T13:54:11.619Z,99725.00
2023-03-04T13:56:41.867Z,99718.47
2023-03-04T13:59:21.819Z,99711.25
2023-03-04T14:01:52.458Z,99708.34
2023-03-04T14:04:28.036Z,99706.00
2023-03-04T14:06:57.269Z,99700.41
2023-03-04T14:09:32.732Z,99703.63
2023-03-04T14:12:02.428Z,99711.28
2023-03-04T14:14:51.383Z,99704.84
2023-03-04T14:17:23.067Z,99700.03
2023-03-04T14:19:52.502Z,99698.66
2023-03-04T14:22:40.104Z,99704.78
2023-03-04T14:25:18.910Z,99698.53
2023-03-04T14:27:46.369Z,99699.88
2023-03-04T14:30:35.492Z,99696.66
2023-03-04T14:33:15.294Z,99699.69
2023-03-04T14:35:48.315Z,99691.84
2023-03-04T14:38:34.226Z,99702.16
2023-03-04T14:41:12.231Z,99705.38
2023-03-04T14:43:49.926Z,99697.63
2023-03-04T14:46:18.552Z,99705.31
2023-03-04T14:48:50.396Z,99703.31
2023-03-04T14:51:30.368Z,99699.13
2023-03-04T14:53:58.054Z,99698.16
2023-03-04T14:56:30.423Z,99700.84
2023-03-04T14:58:58.722Z,99701.38
2023-03-04T15:01:36.804Z,99697.50
2023-03-04T15:04:14.325Z,99705.78
2023-03-04T15:06:50.416Z,99700.53
2023-03-04T15:09:20.032Z,99706.66
2023-03-04T15:11:50.982Z,99700.50
2023-03-04T15:14:45.296Z,99703.56
2023-03-04T15:17:27.063Z,99700.47
2023-03-04T15:20:02.785Z,99706.91
2023-03-04T15:22:29.917Z,99708.53
2023-03-04T15:24:56.835Z,99712.22
2023-03-04T15:27:24.573Z,99714.72
2023-03-04T15:29:55.601Z,99711.88
2023-03-04T15:32:23.658Z,99717.75
2023-03-04T15:34:50.379Z,99707.63
2023-03-04T15:37:21.943Z,99709.59
2023-03-04T15:39:48.829Z,99705.13
2023-03-04T15:42:15.527Z,99715.69
2023-03-04T15:44:42.470Z,99711.81
2023-03-04T15:47:10.914Z,99702.25
2023-03-04T15:49:37.499Z,99712.81
2023-03-04T15:52:06.438Z,99709.19
2023-03-04T15:54:33.446Z,99724.22
2023-03-04T15:57:00.120Z,99709.09
2023-03-04T15:59:26.742Z,99717.81
2023-03-04T16:01:53.450Z,99721.44
2023-03-04T16:04:20.214Z,99704.88
2023-03-04T16:06:49.124Z,99711.50
2023-03-04T16:09:18.529Z,99705.91
2023-03-04T16:11:46.153Z,99711.88
2023-03-04T16:14:14.123Z,99710.59
2023-03-04T16:16:44.642Z,99703.25
2023-03-04T16:19:11.290Z,99705.38
2023-03-04T16:21:37.991Z,99704.28
2023-03-04T16:24:05.144Z,99708.00
2023-03-04T16:26:40.937Z,99702.56
2023-03-04T16:29:09.435Z,99708.56
2023-03-04T16:31:36.227Z,99704.53
2023-03-04T16:34:02.921Z,99706.44
2023-03-04T16:36:29.781Z,99711.00
2023-03-04T16:38:59.540Z,99715.53
2023-03-04T16:41:30.325Z,99711.31
2023-03-04T16:44:00.713Z,99714.06
2023-03-04T16:46:27.912Z,99711.41
2023-03-04T16:48:54.854Z,99712.56
2023-03-04T16:51:23.614Z,99717.56
2023-03-04T16:53:57.367Z,99716.94
2023-03-04T16:56:24.065Z,99720.16
2023-03-04T16:58:51.449Z,99727.53
2023-03-04T17:01:20.098Z,99730.78
2023-03-04T17:03:47.177Z,99721.19
2023-03-04T17:06:14.976Z,99723.03
2023-03-04T17:08:41.883Z,99728.31
2023-03-04T17:11:12.311Z,99722.41
2023-03-04T17:13:38.958Z,99736.19
2023-03-04T17:16:05.894Z,99728.34
2023-03-04T17:18:32.698Z,99736.75
2023-03-04T17:21:08.243Z,99734.78
2023-03-04T17:23:38.285Z,99732.38
2023-03-04T17:26:05.370Z,99737.78
2023-03-04T17:28:32.588Z,99745.56
2023-03-04T17:30:59.708Z,99743.91
2023-03-04T17:33:26.432Z,99744.06
2023-03-04T17:35:53.304Z,99745.72
2023-03-04T17:38:20.136Z,99741.91
2023-03-04T17:40:47.030Z,99741.16
2023-03-04T17:43:13.812Z,99738.16
2023-03-04T17:45:41.914Z,99745.13
2023-03-04T17:48:10.878Z,99753.47
2023-03-04T17:50:37.591Z,99749.38
2023-03-04T17:53:04.191Z,99760.69
2023-03-04T17:55:30.794Z,99753.97
2023-03-04T17:57:57.640Z,99750.00
2023-03-04T18:00:24.433Z,99753.84
2023-03-04T18:02:51.179Z,99752.88
2023-03-04T18:05:17.924Z,99747.06
2023-03-04T18:07:44.571Z,99754.13
2023-03-04T18:10:11.413Z,99755.66
2023-03-04T18:12:38.161Z,99760.22
2023-03-04T18:15:05.261Z,99763.09
2023-03-04T18:17:31.912Z,99760.63
2023-03-04T18:19:58.569Z,99764.16
2023-03-04T18:22:25.243Z,99766.72
2023-03-04T18:24:51.886Z,99764.19
2023-03-04T18:27:18.689Z,99772.19
2023-03-04T18:29:47.637Z,99764.25
2023-03-04T18:32:14.633Z,99779.13
2023-03-04T18:34:41.328Z,99781.72
2023-03-04T18:37:08.041Z,99778.56
2023-03-04T18:39:34.670Z,99775.09
2023-03-04T18:42:01.291Z,99793.41
2023-03-04T18:44:28.017Z,99788.28
2023-03-04T18:46:56.972Z,99793.56
2023-03-04T18:49:24.157Z,99796.84
2023-03-04T18:51:51.586Z,99799.47
2023-03-04T18:54:18.227Z,99795.94
2023-03-04T18:56:53.108Z,99810.22
2023-03-04T18:59:22.623Z,99807.75
2023-03-04T19:01:51.382Z,99796.53
2023-03-04T19:04:20.144Z,99803.41
2023-03-04T19:06:47.271Z,99809.56
2023-03-04T19:09:13.901Z,99803.47
2023-03-04T19:11:40.599Z,99803.56
2023-03-04T19:14:07.204Z,99790.53
2023-03-04T19:16:34.110Z,99796.66
2023-03-04T19:19:02.521Z,99792.31
2023-03-04T19:21:29.178Z,99797.47
2023-03-04T19:23:55.930Z,99792.28
2023-03-04T19:26:22.737Z,99792.38
2023-03-04T19:28:49.366Z,99787.19
2023-03-04T19:31:15.994Z,99800.19
2023-03-04T19:33:42.645Z,99802.78
2023-03-04T19:36:10.372Z,99789.75
2023-03-04T19:38:37.081Z,99794.16
2023-03-04T19:41:15.207Z,99789.84
2023-03-04T19:43:41.994Z,99794.19
2023-03-04T19:46:10.446Z,99788.09
2023-03-04T19:48:38.164Z,99796.75
2023-03-04T19:51:14.123Z,99795.03
2023-03-04T19:53:40.769Z,99799.34
2023-03-04T19:56:07.995Z,99789.84
2023-03-04T19:58:34.639Z,99789.00
2023-03-04T20:01:01.600Z,99795.91
2023-03-04T20:03:28.373Z,99794.16
2023-03-04T20:06:08.670Z,99801.97
2023-03-04T20:08:38.376Z,99801.97
2023-03-04T20:11:11.917Z,99802.84
2023-03-04T20:13:38.710Z,99802.81
2023-03-04T20:16:12.110Z,99814.06
2023-03-04T20:18:39.970Z,99802.81
2023-03-04T20:21:06.912Z,99810.63
2023-03-04T20:23:34.159Z,99810.63
2023-03-04T20:26:01.021Z,99805.44
2023-03-04T20:28:29.611Z,99810.63
2023-03-04T20:31:11.673Z,99810.59
2023-03-04T20:33:38.565Z,99804.56
2023-03-04T20:36:05.488Z,99802.84
2023-03-04T20:38:34.893Z,99802.81
2023-03-04T20:41:01.601Z,99805.38
2023-03-04T20:43:28.264Z,99800.19
2023-03-04T20:45:55.482Z,99797.56
2023-03-04T20:48:22.173Z,99799.34
2023-03-04T20:50:48.984Z,99807.13
2023-03-04T20:53:15.607Z,99808.03
2023-03-04T20:55:42.295Z,99807.16
2023-03-04T20:58:08.939Z,99812.34
2023-03-04T21:00:35.628Z,99814.94
2023-03-04T21:03:02.486Z,99821.00
2023-03-04T21:05:30.855Z,99821.88
2023-03-04T21:07:58.932Z,99822.75
2023-03-04T21:10:25.711Z,99817.56
2023-03-04T21:12:52.333Z,99809.66
2023-03-04T21:15:19.085Z,99801.91
2023-03-04T21:17:45.729Z,99810.53
2023-03-04T21:20:14.731Z,99818.31
2023-03-04T21:22:41.405Z,99812.34
2023-03-04T21:25:08.613Z,99826.16
2023-03-04T21:27:35.259Z,99818.31
2023-03-04T21:30:01.998Z,99826.03
2023-03-04T21:32:28.908Z,99826.09
2023-03-04T21:34:56.025Z,99821.84
2023-03-04T21:37:24.642Z,99826.16
2023-03-04T21:39:51.516Z,99827.00
2023-03-04T21:42:18.343Z,99820.00
2023-03-04T21:44:49.602Z,99820.91
2023-03-04T21:47:17.246Z,99817.38
2023-03-04T21:49:44.102Z,99814.00
2023-03-04T21:52:10.741Z,99817.38
2023-03-04T21:54:37.417Z,99811.13
2023-03-04T21:57:04.128Z,99812.94
2023-03-04T21:59:30.771Z,99815.50
2023-03-04T22:01:57.438Z,99820.69
2023-03-04T22:04:24.065Z,99824.19
2023-03-04T22:06:50.708Z,99814.66
2023-03-04T22:09:17.346Z,99824.16
2023-03-04T22:11:46.206Z,99823.31
2023-03-04T22:14:13.236Z,99826.03
2023-03-04T22:16:53.946Z,99819.13
2023-03-04T22:19:26.556Z,99819.13
2023-03-04T22:21:53.814Z,99817.41
2023-03-04T22:24:21.351Z,99820.00
2023-03-04T22:26:48.755Z,99811.22
2023-03-04T22:29:15.516Z,99818.06
2023-03-04T22:31:42.301Z,99818.94
2023-03-04T22:34:14.852Z,99821.56
2023-03-04T22:36:43.400Z,99824.09
2023-03-04T22:39:15.584Z,99834.59
2023-03-04T22:41:42.446Z,99839.81
2023-03-04T22:44:09.113Z,99841.53
2023-03-04T22:46:38.071Z,99845.69
2023-03-04T22:49:07.540Z,99834.31
2023-03-04T22:51:34.261Z,99839.66
2023-03-04T22:54:00.941Z,99833.50
2023-03-04T22:56:27.625Z,99828.31
2023-03-04T22:58:57.184Z,99834.38
2023-03-04T23:01:24.058Z,99837.00
2023-03-04T23:03:51.129Z,99832.81
2023-03-04T23:06:21.165Z,99832.84
2023-03-04T23:08:49.897Z,99837.00
2023-03-04T23:11:23.453Z,99837.91
2023-03-04T23:13:50.883Z,99834.53
2023-03-04T23:16:18.473Z,99834.53
2023-03-04T23:18:46.670Z,99838.84
2023-03-04T23:21:17.148Z,99837.16
2023-03-04T23:23:47.314Z,99832.81
2023-03-04T23:26:19.654Z,99835.25
2023-03-04T23:28:46.509Z,99839.59
2023-03-04T23:31:14.310Z,99839.53
2023-03-04T23:33:42.446Z,99836.09
2023-03-04T23:36:15.481Z,99845.69
2023-03-04T23:38:47.892Z,99845.75
2023-03-04T23:41:27.018Z,99847.53
2023-03-04T23:43:58.814Z,99857.81
2023-03-04T23:46:26.228Z,99856.09
2023-03-04T23:48:54.327Z,99854.53
2023-03-04T23:51:28.393Z,99861.31
2023-03-04T23:53:55.929Z,99868.19
2023-03-04T23:56:25.308Z,99865.59
2023-03-04T23:58:55.143Z,99861.25
